sensor_id;sensor_type;location;lat;lon;timestamp;P1;durP1;ratioP1;P2;durP2;ratioP2
11042;SDS011;5574;48.786;10.120;2024-01-06T00:01:14;3.00;;;2.40;;
11042;SDS011;5574;48.786;10.120;2024-01-06T00:03:41;4.07;;;2.37;;
11042;SDS011;5574;48.786;10.120;2024-01-06T00:06:10;2.37;;;2.10;;
11042;SDS011;5574;48.786;10.120;2024-01-06T00:08:37;3.03;;;2.30;;
11042;SDS011;5574;48.786;10.120;2024-01-06T00:11:04;3.27;;;2.40;;
11042;SDS011;5574;48.786;10.120;2024-01-06T00:13:32;2.97;;;2.47;;
11042;SDS011;5574;48.786;10.120;2024-01-06T00:16:00;4.13;;;2.27;;
11042;SDS011;5574;48.786;10.120;2024-01-06T00:18:27;2.43;;;2.23;;
11042;SDS011;5574;48.786;10.120;2024-01-06T00:20:53;3.27;;;2.30;;
11042;SDS011;5574;48.786;10.120;2024-01-06T00:23:20;4.07;;;2.20;;
11042;SDS011;5574;48.786;10.120;2024-01-06T00:25:47;4.60;;;2.30;;
11042;SDS011;5574;48.786;10.120;2024-01-06T00:28:13;2.33;;;1.83;;
11042;SDS011;5574;48.786;10.120;2024-01-06T00:30:41;2.50;;;2.07;;
11042;SDS011;5574;48.786;10.120;2024-01-06T00:33:08;2.30;;;1.97;;
11042;SDS011;5574;48.786;10.120;2024-01-06T00:35:35;3.10;;;2.00;;
11042;SDS011;5574;48.786;10.120;2024-01-06T00:38:01;2.73;;;2.30;;
11042;SDS011;5574;48.786;10.120;2024-01-06T00:40:28;2.97;;;2.20;;
11042;SDS011;5574;48.786;10.120;2024-01-06T00:42:55;2.43;;;2.10;;
11042;SDS011;5574;48.786;10.120;2024-01-06T00:45:21;3.73;;;2.40;;
11042;SDS011;5574;48.786;10.120;2024-01-06T00:47:49;3.77;;;2.27;;
11042;SDS011;5574;48.786;10.120;2024-01-06T00:50:17;2.90;;;2.40;;
11042;SDS011;5574;48.786;10.120;2024-01-06T00:52:44;2.47;;;2.10;;
11042;SDS011;5574;48.786;10.120;2024-01-06T00:55:10;2.60;;;2.30;;
11042;SDS011;5574;48.786;10.120;2024-01-06T00:57:37;4.57;;;1.97;;
11042;SDS011;5574;48.786;10.120;2024-01-06T01:00:04;2.00;;;1.73;;
11042;SDS011;5574;48.786;10.120;2024-01-06T01:02:31;2.03;;;1.50;;
11042;SDS011;5574;48.786;10.120;2024-01-06T01:04:59;2.80;;;2.10;;
11042;SDS011;5574;48.786;10.120;2024-01-06T01:07:26;2.57;;;1.80;;
11042;SDS011;5574;48.786;10.120;2024-01-06T01:09:53;2.13;;;1.93;;
11042;SDS011;5574;48.786;10.120;2024-01-06T01:12:21;2.63;;;1.87;;
11042;SDS011;5574;48.786;10.120;2024-01-06T01:14:48;3.93;;;1.70;;
11042;SDS011;5574;48.786;10.120;2024-01-06T01:17:14;3.77;;;1.97;;
11042;SDS011;5574;48.786;10.120;2024-01-06T01:19:41;2.93;;;1.73;;
11042;SDS011;5574;48.786;10.120;2024-01-06T01:22:09;4.13;;;1.83;;
11042;SDS011;5574;48.786;10.120;2024-01-06T01:24:36;1.63;;;1.40;;
11042;SDS011;5574;48.786;10.120;2024-01-06T01:27:02;2.43;;;1.90;;
11042;SDS011;5574;48.786;10.120;2024-01-06T01:29:29;2.17;;;1.50;;
11042;SDS011;5574;48.786;10.120;2024-01-06T01:31:56;4.57;;;1.80;;
11042;SDS011;5574;48.786;10.120;2024-01-06T01:34:23;3.63;;;1.90;;
11042;SDS011;5574;48.786;10.120;2024-01-06T01:36:49;2.80;;;1.80;;
11042;SDS011;5574;48.786;10.120;2024-01-06T01:39:18;2.33;;;2.10;;
11042;SDS011;5574;48.786;10.120;2024-01-06T01:41:44;3.07;;;1.57;;
11042;SDS011;5574;48.786;10.120;2024-01-06T01:44:11;3.23;;;1.80;;
11042;SDS011;5574;48.786;10.120;2024-01-06T01:46:38;1.77;;;1.67;;
11042;SDS011;5574;48.786;10.120;2024-01-06T01:49:05;3.40;;;1.80;;
11042;SDS011;5574;48.786;10.120;2024-01-06T01:51:32;2.07;;;1.70;;
11042;SDS011;5574;48.786;10.120;2024-01-06T01:54:00;4.33;;;1.80;;
11042;SDS011;5574;48.786;10.120;2024-01-06T01:56:29;1.80;;;1.70;;
11042;SDS011;5574;48.786;10.120;2024-01-06T01:58:58;3.90;;;2.00;;
11042;SDS011;5574;48.786;10.120;2024-01-06T02:01:26;2.70;;;2.00;;
11042;SDS011;5574;48.786;10.120;2024-01-06T02:03:53;3.80;;;1.70;;
11042;SDS011;5574;48.786;10.120;2024-01-06T02:06:19;3.87;;;2.10;;
11042;SDS011;5574;48.786;10.120;2024-01-06T02:08:46;2.90;;;1.93;;
11042;SDS011;5574;48.786;10.120;2024-01-06T02:11:13;2.73;;;1.77;;
11042;SDS011;5574;48.786;10.120;2024-01-06T02:13:41;2.60;;;2.30;;
11042;SDS011;5574;48.786;10.120;2024-01-06T02:16:07;2.37;;;2.00;;
11042;SDS011;5574;48.786;10.120;2024-01-06T02:18:34;2.33;;;2.13;;
11042;SDS011;5574;48.786;10.120;2024-01-06T02:21:01;4.00;;;2.10;;
11042;SDS011;5574;48.786;10.120;2024-01-06T02:23:30;5.30;;;2.27;;
11042;SDS011;5574;48.786;10.120;2024-01-06T02:25:56;3.60;;;2.50;;
11042;SDS011;5574;48.786;10.120;2024-01-06T02:28:23;2.90;;;2.57;;
11042;SDS011;5574;48.786;10.120;2024-01-06T02:30:51;3.47;;;2.40;;
11042;SDS011;5574;48.786;10.120;2024-01-06T02:33:17;3.60;;;2.23;;
11042;SDS011;5574;48.786;10.120;2024-01-06T02:35:44;3.50;;;2.40;;
11042;SDS011;5574;48.786;10.120;2024-01-06T02:38:11;3.03;;;2.40;;
11042;SDS011;5574;48.786;10.120;2024-01-06T02:40:39;3.90;;;2.47;;
11042;SDS011;5574;48.786;10.120;2024-01-06T02:43:07;2.93;;;2.47;;
11042;SDS011;5574;48.786;10.120;2024-01-06T02:45:34;2.50;;;2.30;;
11042;SDS011;5574;48.786;10.120;2024-01-06T02:48:01;3.30;;;2.73;;
11042;SDS011;5574;48.786;10.120;2024-01-06T02:50:28;4.40;;;2.90;;
11042;SDS011;5574;48.786;10.120;2024-01-06T02:52:54;4.97;;;2.50;;
11042;SDS011;5574;48.786;10.120;2024-01-06T02:55:21;3.10;;;2.10;;
11042;SDS011;5574;48.786;10.120;2024-01-06T02:57:49;4.00;;;2.27;;
11042;SDS011;5574;48.786;10.120;2024-01-06T03:00:16;3.83;;;2.67;;
11042;SDS011;5574;48.786;10.120;2024-01-06T03:02:43;4.63;;;2.50;;
11042;SDS011;5574;48.786;10.120;2024-01-06T03:05:10;5.03;;;2.77;;
11042;SDS011;5574;48.786;10.120;2024-01-06T03:07:36;4.90;;;2.87;;
11042;SDS011;5574;48.786;10.120;2024-01-06T03:10:03;3.57;;;3.27;;
11042;SDS011;5574;48.786;10.120;2024-01-06T03:12:30;4.40;;;3.17;;
11042;SDS011;5574;48.786;10.120;2024-01-06T03:14:58;4.00;;;2.67;;
11042;SDS011;5574;48.786;10.120;2024-01-06T03:17:25;2.77;;;2.50;;
11042;SDS011;5574;48.786;10.120;2024-01-06T03:19:53;2.93;;;2.60;;
11042;SDS011;5574;48.786;10.120;2024-01-06T03:22:20;5.07;;;2.90;;
11042;SDS011;5574;48.786;10.120;2024-01-06T03:24:47;3.03;;;2.60;;
11042;SDS011;5574;48.786;10.120;2024-01-06T03:27:13;3.40;;;2.60;;
11042;SDS011;5574;48.786;10.120;2024-01-06T03:29:40;3.93;;;3.00;;
11042;SDS011;5574;48.786;10.120;2024-01-06T03:32:08;3.13;;;2.83;;
11042;SDS011;5574;48.786;10.120;2024-01-06T03:34:35;3.17;;;2.83;;
11042;SDS011;5574;48.786;10.120;2024-01-06T03:37:01;3.80;;;2.83;;
11042;SDS011;5574;48.786;10.120;2024-01-06T03:39:28;3.90;;;3.50;;
11042;SDS011;5574;48.786;10.120;2024-01-06T03:41:55;4.97;;;3.03;;
11042;SDS011;5574;48.786;10.120;2024-01-06T03:44:22;5.57;;;3.00;;
11042;SDS011;5574;48.786;10.120;2024-01-06T03:46:48;3.93;;;3.00;;
11042;SDS011;5574;48.786;10.120;2024-01-06T03:49:16;4.20;;;3.10;;
11042;SDS011;5574;48.786;10.120;2024-01-06T03:51:45;4.10;;;2.80;;
11042;SDS011;5574;48.786;10.120;2024-01-06T03:54:12;5.00;;;3.17;;
11042;SDS011;5574;48.786;10.120;2024-01-06T03:56:39;4.83;;;3.20;;
11042;SDS011;5574;48.786;10.120;2024-01-06T03:59:05;4.33;;;3.10;;
11042;SDS011;5574;48.786;10.120;2024-01-06T04:01:32;4.07;;;2.90;;
11042;SDS011;5574;48.786;10.120;2024-01-06T04:04:01;4.97;;;3.40;;
11042;SDS011;5574;48.786;10.120;2024-01-06T04:06:29;4.87;;;3.03;;
11042;SDS011;5574;48.786;10.120;2024-01-06T04:08:57;4.87;;;2.90;;
11042;SDS011;5574;48.786;10.120;2024-01-06T04:11:24;3.00;;;2.70;;
11042;SDS011;5574;48.786;10.120;2024-01-06T04:13:50;3.67;;;2.80;;
11042;SDS011;5574;48.786;10.120;2024-01-06T04:16:17;5.30;;;3.13;;
11042;SDS011;5574;48.786;10.120;2024-01-06T04:18:44;4.17;;;3.20;;
11042;SDS011;5574;48.786;10.120;2024-01-06T04:21:10;4.37;;;3.20;;
11042;SDS011;5574;48.786;10.120;2024-01-06T04:23:38;5.20;;;3.73;;
11042;SDS011;5574;48.786;10.120;2024-01-06T04:26:05;4.47;;;2.87;;
11042;SDS011;5574;48.786;10.120;2024-01-06T04:28:32;6.60;;;3.77;;
11042;SDS011;5574;48.786;10.120;2024-01-06T04:30:58;4.10;;;3.07;;
11042;SDS011;5574;48.786;10.120;2024-01-06T04:33:25;5.20;;;3.00;;
11042;SDS011;5574;48.786;10.120;2024-01-06T04:35:52;4.57;;;2.90;;
11042;SDS011;5574;48.786;10.120;2024-01-06T04:38:18;6.20;;;3.03;;
11042;SDS011;5574;48.786;10.120;2024-01-06T04:40:46;4.20;;;3.10;;
11042;SDS011;5574;48.786;10.120;2024-01-06T04:43:13;6.10;;;3.40;;
11042;SDS011;5574;48.786;10.120;2024-01-06T04:45:40;2.87;;;2.57;;
11042;SDS011;5574;48.786;10.120;2024-01-06T04:48:07;4.60;;;3.17;;
11042;SDS011;5574;48.786;10.120;2024-01-06T04:50:33;3.40;;;2.70;;
11042;SDS011;5574;48.786;10.120;2024-01-06T04:53:00;3.77;;;3.10;;
11042;SDS011;5574;48.786;10.120;2024-01-06T04:55:27;3.50;;;2.70;;
11042;SDS011;5574;48.786;10.120;2024-01-06T04:57:55;4.23;;;2.83;;
11042;SDS011;5574;48.786;10.120;2024-01-06T05:00:22;4.10;;;2.70;;
11042;SDS011;5574;48.786;10.120;2024-01-06T05:02:49;4.13;;;2.60;;
11042;SDS011;5574;48.786;10.120;2024-01-06T05:05:15;3.80;;;2.90;;
11042;SDS011;5574;48.786;10.120;2024-01-06T05:07:42;3.17;;;2.63;;
11042;SDS011;5574;48.786;10.120;2024-01-06T05:10:09;2.73;;;2.33;;
11042;SDS011;5574;48.786;10.120;2024-01-06T05:12:35;3.87;;;2.17;;
11042;SDS011;5574;48.786;10.120;2024-01-06T05:15:04;3.97;;;2.47;;
11042;SDS011;5574;48.786;10.120;2024-01-06T05:17:31;3.30;;;2.53;;
11042;SDS011;5574;48.786;10.120;2024-01-06T05:19:58;3.20;;;2.40;;
11042;SDS011;5574;48.786;10.120;2024-01-06T05:22:25;2.57;;;2.23;;
11042;SDS011;5574;48.786;10.120;2024-01-06T05:24:52;4.03;;;2.70;;
11042;SDS011;5574;48.786;10.120;2024-01-06T05:27:19;3.70;;;2.37;;
11042;SDS011;5574;48.786;10.120;2024-01-06T05:29:45;3.47;;;2.47;;
11042;SDS011;5574;48.786;10.120;2024-01-06T05:32:15;2.77;;;2.07;;
11042;SDS011;5574;48.786;10.120;2024-01-06T05:34:42;3.17;;;2.10;;
11042;SDS011;5574;48.786;10.120;2024-01-06T05:37:09;3.47;;;2.10;;
11042;SDS011;5574;48.786;10.120;2024-01-06T05:39:37;3.97;;;2.00;;
11042;SDS011;5574;48.786;10.120;2024-01-06T05:42:03;3.70;;;2.07;;
11042;SDS011;5574;48.786;10.120;2024-01-06T05:44:30;4.00;;;1.90;;
11042;SDS011;5574;48.786;10.120;2024-01-06T05:46:57;3.33;;;1.83;;
11042;SDS011;5574;48.786;10.120;2024-01-06T05:49:25;4.70;;;2.07;;
11042;SDS011;5574;48.786;10.120;2024-01-06T05:51:51;2.00;;;1.70;;
11042;SDS011;5574;48.786;10.120;2024-01-06T05:54:18;4.43;;;1.80;;
11042;SDS011;5574;48.786;10.120;2024-01-06T05:56:45;2.43;;;1.57;;
11042;SDS011;5574;48.786;10.120;2024-01-06T05:59:11;4.80;;;1.90;;
11042;SDS011;5574;48.786;10.120;2024-01-06T06:01:39;4.77;;;2.63;;
11042;SDS011;5574;48.786;10.120;2024-01-06T06:04:06;4.27;;;1.50;;
11042;SDS011;5574;48.786;10.120;2024-01-06T06:06:34;5.23;;;1.90;;
11042;SDS011;5574;48.786;10.120;2024-01-06T06:09:02;4.03;;;1.60;;
11042;SDS011;5574;48.786;10.120;2024-01-06T06:11:31;3.33;;;1.83;;
11042;SDS011;5574;48.786;10.120;2024-01-06T06:13:58;2.50;;;2.00;;
11042;SDS011;5574;48.786;10.120;2024-01-06T06:16:27;3.10;;;1.87;;
11042;SDS011;5574;48.786;10.120;2024-01-06T06:18:54;5.53;;;1.93;;
11042;SDS011;5574;48.786;10.120;2024-01-06T06:21:21;2.67;;;1.80;;
11042;SDS011;5574;48.786;10.120;2024-01-06T06:23:49;3.13;;;2.03;;
11042;SDS011;5574;48.786;10.120;2024-01-06T06:26:16;3.27;;;1.80;;
11042;SDS011;5574;48.786;10.120;2024-01-06T06:28:43;3.57;;;1.90;;
11042;SDS011;5574;48.786;10.120;2024-01-06T06:31:09;2.57;;;1.57;;
11042;SDS011;5574;48.786;10.120;2024-01-06T06:33:36;2.73;;;1.70;;
11042;SDS011;5574;48.786;10.120;2024-01-06T06:36:04;2.17;;;1.83;;
11042;SDS011;5574;48.786;10.120;2024-01-06T06:38:31;1.77;;;1.63;;
11042;SDS011;5574;48.786;10.120;2024-01-06T06:40:59;3.17;;;1.90;;
11042;SDS011;5574;48.786;10.120;2024-01-06T06:43:26;3.70;;;1.73;;
11042;SDS011;5574;48.786;10.120;2024-01-06T06:45:52;1.57;;;1.30;;
11042;SDS011;5574;48.786;10.120;2024-01-06T06:48:20;2.60;;;1.80;;
11042;SDS011;5574;48.786;10.120;2024-01-06T06:50:47;2.10;;;1.67;;
11042;SDS011;5574;48.786;10.120;2024-01-06T06:53:13;3.80;;;1.60;;
11042;SDS011;5574;48.786;10.120;2024-01-06T06:55:40;2.73;;;1.43;;
11042;SDS011;5574;48.786;10.120;2024-01-06T06:58:08;4.03;;;1.70;;
11042;SDS011;5574;48.786;10.120;2024-01-06T07:00:35;1.73;;;1.63;;
11042;SDS011;5574;48.786;10.120;2024-01-06T07:03:02;4.90;;;1.80;;
11042;SDS011;5574;48.786;10.120;2024-01-06T07:05:29;2.53;;;1.70;;
11042;SDS011;5574;48.786;10.120;2024-01-06T07:07:55;3.47;;;1.90;;
11042;SDS011;5574;48.786;10.120;2024-01-06T07:10:22;1.93;;;1.70;;
11042;SDS011;5574;48.786;10.120;2024-01-06T07:12:49;3.07;;;2.47;;
11042;SDS011;5574;48.786;10.120;2024-01-06T07:15:17;4.43;;;2.10;;
11042;SDS011;5574;48.786;10.120;2024-01-06T07:17:43;4.47;;;2.63;;
11042;SDS011;5574;48.786;10.120;2024-01-06T07:20:10;3.93;;;1.90;;
11042;SDS011;5574;48.786;10.120;2024-01-06T07:22:37;4.13;;;2.20;;
11042;SDS011;5574;48.786;10.120;2024-01-06T07:25:04;3.43;;;1.90;;
11042;SDS011;5574;48.786;10.120;2024-01-06T07:27:32;4.57;;;2.00;;
11042;SDS011;5574;48.786;10.120;2024-01-06T07:29:59;4.27;;;2.03;;
11042;SDS011;5574;48.786;10.120;2024-01-06T07:32:27;2.73;;;2.13;;
11042;SDS011;5574;48.786;10.120;2024-01-06T07:34:54;4.17;;;1.93;;
11042;SDS011;5574;48.786;10.120;2024-01-06T07:37:20;3.27;;;2.30;;
11042;SDS011;5574;48.786;10.120;2024-01-06T07:39:47;3.57;;;1.77;;
11042;SDS011;5574;48.786;10.120;2024-01-06T07:42:14;4.17;;;2.60;;
11042;SDS011;5574;48.786;10.120;2024-01-06T07:44:40;5.17;;;2.20;;
11042;SDS011;5574;48.786;10.120;2024-01-06T07:47:07;3.90;;;2.30;;
11042;SDS011;5574;48.786;10.120;2024-01-06T07:49:35;2.10;;;1.73;;
11042;SDS011;5574;48.786;10.120;2024-01-06T07:52:02;4.63;;;2.20;;
11042;SDS011;5574;48.786;10.120;2024-01-06T07:54:29;4.30;;;2.63;;
11042;SDS011;5574;48.786;10.120;2024-01-06T07:56:56;3.57;;;2.20;;
11042;SDS011;5574;48.786;10.120;2024-01-06T07:59:23;3.43;;;2.10;;
11042;SDS011;5574;48.786;10.120;2024-01-06T08:01:49;4.77;;;2.27;;
11042;SDS011;5574;48.786;10.120;2024-01-06T08:04:16;2.53;;;2.10;;
11042;SDS011;5574;48.786;10.120;2024-01-06T08:06:44;4.10;;;1.93;;
11042;SDS011;5574;48.786;10.120;2024-01-06T08:09:11;2.60;;;1.80;;
11042;SDS011;5574;48.786;10.120;2024-01-06T08:11:37;4.60;;;2.73;;
11042;SDS011;5574;48.786;10.120;2024-01-06T08:14:04;2.97;;;2.60;;
11042;SDS011;5574;48.786;10.120;2024-01-06T08:16:31;3.43;;;2.27;;
11042;SDS011;5574;48.786;10.120;2024-01-06T08:18:58;3.53;;;2.00;;
11042;SDS011;5574;48.786;10.120;2024-01-06T08:21:24;3.10;;;2.00;;
11042;SDS011;5574;48.786;10.120;2024-01-06T08:23:53;2.13;;;1.90;;
11042;SDS011;5574;48.786;10.120;2024-01-06T08:26:20;3.90;;;2.17;;
11042;SDS011;5574;48.786;10.120;2024-01-06T08:28:47;4.07;;;2.00;;
11042;SDS011;5574;48.786;10.120;2024-01-06T08:31:14;2.40;;;1.90;;
11042;SDS011;5574;48.786;10.120;2024-01-06T08:33:41;4.07;;;2.53;;
11042;SDS011;5574;48.786;10.120;2024-01-06T08:36:07;3.57;;;2.40;;
11042;SDS011;5574;48.786;10.120;2024-01-06T08:38:34;2.90;;;2.10;;
11042;SDS011;5574;48.786;10.120;2024-01-06T08:41:03;3.07;;;2.50;;
11042;SDS011;5574;48.786;10.120;2024-01-06T08:43:30;3.63;;;2.40;;
11042;SDS011;5574;48.786;10.120;2024-01-06T08:45:56;3.20;;;2.40;;
11042;SDS011;5574;48.786;10.120;2024-01-06T08:48:23;4.40;;;2.17;;
11042;SDS011;5574;48.786;10.120;2024-01-06T08:50:50;3.43;;;2.03;;
11042;SDS011;5574;48.786;10.120;2024-01-06T08:53:17;2.50;;;2.13;;
11042;SDS011;5574;48.786;10.120;2024-01-06T08:55:43;3.63;;;2.00;;
11042;SDS011;5574;48.786;10.120;2024-01-06T08:58:11;2.83;;;2.00;;
11042;SDS011;5574;48.786;10.120;2024-01-06T09:00:38;4.13;;;2.20;;
11042;SDS011;5574;48.786;10.120;2024-01-06T09:03:05;2.40;;;1.80;;
11042;SDS011;5574;48.786;10.120;2024-01-06T09:05:31;3.23;;;2.00;;
11042;SDS011;5574;48.786;10.120;2024-01-06T09:07:59;3.17;;;2.00;;
11042;SDS011;5574;48.786;10.120;2024-01-06T09:10:25;4.33;;;3.10;;
11042;SDS011;5574;48.786;10.120;2024-01-06T09:12:54;5.47;;;2.90;;
11042;SDS011;5574;48.786;10.120;2024-01-06T09:15:22;5.60;;;2.50;;
11042;SDS011;5574;48.786;10.120;2024-01-06T09:17:49;2.67;;;2.07;;
11042;SDS011;5574;48.786;10.120;2024-01-06T09:20:16;4.73;;;2.00;;
11042;SDS011;5574;48.786;10.120;2024-01-06T09:22:47;2.37;;;1.80;;
11042;SDS011;5574;48.786;10.120;2024-01-06T09:25:15;2.70;;;1.97;;
11042;SDS011;5574;48.786;10.120;2024-01-06T09:27:42;4.67;;;2.10;;
11042;SDS011;5574;48.786;10.120;2024-01-06T09:30:10;2.90;;;2.30;;
11042;SDS011;5574;48.786;10.120;2024-01-06T09:32:38;6.00;;;2.40;;
11042;SDS011;5574;48.786;10.120;2024-01-06T09:35:06;4.07;;;2.40;;
11042;SDS011;5574;48.786;10.120;2024-01-06T09:37:33;2.67;;;2.47;;
11042;SDS011;5574;48.786;10.120;2024-01-06T09:40:00;3.47;;;2.10;;
11042;SDS011;5574;48.786;10.120;2024-01-06T09:42:27;3.73;;;2.40;;
11042;SDS011;5574;48.786;10.120;2024-01-06T09:44:54;3.93;;;2.20;;
11042;SDS011;5574;48.786;10.120;2024-01-06T09:47:22;4.20;;;2.70;;
11042;SDS011;5574;48.786;10.120;2024-01-06T09:49:51;2.77;;;2.07;;
11042;SDS011;5574;48.786;10.120;2024-01-06T09:52:21;4.27;;;2.60;;
11042;SDS011;5574;48.786;10.120;2024-01-06T09:54:51;2.30;;;2.10;;
11042;SDS011;5574;48.786;10.120;2024-01-06T09:57:19;2.30;;;2.10;;
11042;SDS011;5574;48.786;10.120;2024-01-06T09:59:47;3.17;;;2.87;;
11042;SDS011;5574;48.786;10.120;2024-01-06T10:02:14;2.93;;;2.63;;
11042;SDS011;5574;48.786;10.120;2024-01-06T10:04:42;5.87;;;2.70;;
11042;SDS011;5574;48.786;10.120;2024-01-06T10:07:11;3.93;;;2.07;;
11042;SDS011;5574;48.786;10.120;2024-01-06T10:09:39;3.00;;;2.70;;
11042;SDS011;5574;48.786;10.120;2024-01-06T10:12:07;3.20;;;2.50;;
11042;SDS011;5574;48.786;10.120;2024-01-06T10:14:35;2.90;;;2.27;;
11042;SDS011;5574;48.786;10.120;2024-01-06T10:17:02;3.30;;;2.13;;
11042;SDS011;5574;48.786;10.120;2024-01-06T10:19:32;2.53;;;2.10;;
11042;SDS011;5574;48.786;10.120;2024-01-06T10:21:59;2.73;;;2.53;;
11042;SDS011;5574;48.786;10.120;2024-01-06T10:24:29;2.97;;;2.00;;
11042;SDS011;5574;48.786;10.120;2024-01-06T10:26:57;4.07;;;2.30;;
11042;SDS011;5574;48.786;10.120;2024-01-06T10:29:24;2.63;;;2.30;;
11042;SDS011;5574;48.786;10.120;2024-01-06T10:31:52;2.80;;;2.13;;
11042;SDS011;5574;48.786;10.120;2024-01-06T10:34:20;2.60;;;2.20;;
11042;SDS011;5574;48.786;10.120;2024-01-06T10:36:48;2.57;;;2.33;;
11042;SDS011;5574;48.786;10.120;2024-01-06T10:39:17;4.87;;;3.83;;
11042;SDS011;5574;48.786;10.120;2024-01-06T10:41:46;3.43;;;3.13;;
11042;SDS011;5574;48.786;10.120;2024-01-06T10:44:15;4.50;;;3.20;;
11042;SDS011;5574;48.786;10.120;2024-01-06T10:46:42;3.33;;;2.60;;
11042;SDS011;5574;48.786;10.120;2024-01-06T10:49:10;2.93;;;2.30;;
11042;SDS011;5574;48.786;10.120;2024-01-06T10:51:38;3.77;;;2.97;;
11042;SDS011;5574;48.786;10.120;2024-01-06T10:54:06;2.87;;;2.63;;
11042;SDS011;5574;48.786;10.120;2024-01-06T10:56:36;5.03;;;3.00;;
11042;SDS011;5574;48.786;10.120;2024-01-06T10:59:05;4.43;;;3.97;;
11042;SDS011;5574;48.786;10.120;2024-01-06T11:01:33;5.50;;;4.30;;
11042;SDS011;5574;48.786;10.120;2024-01-06T11:04:02;8.37;;;4.93;;
11042;SDS011;5574;48.786;10.120;2024-01-06T11:06:31;8.00;;;4.53;;
11042;SDS011;5574;48.786;10.120;2024-01-06T11:08:59;6.90;;;4.40;;
11042;SDS011;5574;48.786;10.120;2024-01-06T11:11:33;14.83;;;8.67;;
11042;SDS011;5574;48.786;10.120;2024-01-06T11:14:20;14.47;;;7.20;;
11042;SDS011;5574;48.786;10.120;2024-01-06T11:16:49;12.80;;;7.67;;
11042;SDS011;5574;48.786;10.120;2024-01-06T11:22:20;13.07;;;8.27;;
11042;SDS011;5574;48.786;10.120;2024-01-06T11:24:49;16.20;;;10.30;;
11042;SDS011;5574;48.786;10.120;2024-01-06T11:27:17;6.73;;;4.43;;
11042;SDS011;5574;48.786;10.120;2024-01-06T11:29:50;4.10;;;3.67;;
11042;SDS011;5574;48.786;10.120;2024-01-06T11:32:18;5.77;;;4.03;;
11042;SDS011;5574;48.786;10.120;2024-01-06T11:34:49;4.57;;;3.43;;
11042;SDS011;5574;48.786;10.120;2024-01-06T11:37:23;5.63;;;5.17;;
11042;SDS011;5574;48.786;10.120;2024-01-06T11:39:51;3.23;;;2.67;;
11042;SDS011;5574;48.786;10.120;2024-01-06T11:42:19;2.70;;;2.50;;
11042;SDS011;5574;48.786;10.120;2024-01-06T11:44:51;3.53;;;2.50;;
11042;SDS011;5574;48.786;10.120;2024-01-06T11:47:18;2.70;;;2.50;;
11042;SDS011;5574;48.786;10.120;2024-01-06T11:49:48;2.67;;;2.40;;
11042;SDS011;5574;48.786;10.120;2024-01-06T11:52:24;4.13;;;2.37;;
11042;SDS011;5574;48.786;10.120;2024-01-06T11:54:52;2.27;;;2.03;;
11042;SDS011;5574;48.786;10.120;2024-01-06T11:57:20;4.83;;;3.53;;
11042;SDS011;5574;48.786;10.120;2024-01-06T11:59:47;3.87;;;2.50;;
11042;SDS011;5574;48.786;10.120;2024-01-06T12:02:17;3.40;;;2.50;;
11042;SDS011;5574;48.786;10.120;2024-01-06T12:04:45;2.60;;;2.27;;
11042;SDS011;5574;48.786;10.120;2024-01-06T12:07:15;1.90;;;1.80;;
11042;SDS011;5574;48.786;10.120;2024-01-06T12:09:42;2.57;;;1.80;;
11042;SDS011;5574;48.786;10.120;2024-01-06T12:12:08;2.40;;;2.10;;
11042;SDS011;5574;48.786;10.120;2024-01-06T12:14:36;1.87;;;1.77;;
11042;SDS011;5574;48.786;10.120;2024-01-06T12:17:03;1.70;;;1.60;;
11042;SDS011;5574;48.786;10.120;2024-01-06T12:19:32;1.87;;;1.77;;
11042;SDS011;5574;48.786;10.120;2024-01-06T12:21:59;1.90;;;1.60;;
11042;SDS011;5574;48.786;10.120;2024-01-06T12:24:27;1.53;;;1.43;;
11042;SDS011;5574;48.786;10.120;2024-01-06T12:26:55;2.00;;;1.50;;
11042;SDS011;5574;48.786;10.120;2024-01-06T12:29:23;1.70;;;1.60;;
11042;SDS011;5574;48.786;10.120;2024-01-06T12:31:52;1.73;;;1.63;;
11042;SDS011;5574;48.786;10.120;2024-01-06T12:34:20;1.80;;;1.70;;
11042;SDS011;5574;48.786;10.120;2024-01-06T12:36:48;1.80;;;1.70;;
11042;SDS011;5574;48.786;10.120;2024-01-06T12:39:21;1.87;;;1.77;;
11042;SDS011;5574;48.786;10.120;2024-01-06T12:41:50;1.60;;;1.50;;
11042;SDS011;5574;48.786;10.120;2024-01-06T12:44:16;2.50;;;1.77;;
11042;SDS011;5574;48.786;10.120;2024-01-06T12:46:43;2.93;;;2.40;;
11042;SDS011;5574;48.786;10.120;2024-01-06T12:49:10;2.30;;;2.10;;
11042;SDS011;5574;48.786;10.120;2024-01-06T12:51:37;2.43;;;2.20;;
11042;SDS011;5574;48.786;10.120;2024-01-06T12:54:05;2.43;;;1.90;;
11042;SDS011;5574;48.786;10.120;2024-01-06T12:56:32;2.10;;;1.90;;
11042;SDS011;5574;48.786;10.120;2024-01-06T12:58:58;2.53;;;2.33;;
11042;SDS011;5574;48.786;10.120;2024-01-06T13:01:26;2.07;;;1.97;;
11042;SDS011;5574;48.786;10.120;2024-01-06T13:03:53;2.40;;;2.20;;
11042;SDS011;5574;48.786;10.120;2024-01-06T13:06:20;2.40;;;2.20;;
11042;SDS011;5574;48.786;10.120;2024-01-06T13:08:46;3.37;;;2.57;;
11042;SDS011;5574;48.786;10.120;2024-01-06T13:11:15;2.73;;;2.53;;
11042;SDS011;5574;48.786;10.120;2024-01-06T13:13:43;2.57;;;2.37;;
11042;SDS011;5574;48.786;10.120;2024-01-06T13:16:09;2.57;;;2.37;;
11042;SDS011;5574;48.786;10.120;2024-01-06T13:18:36;2.50;;;2.30;;
11042;SDS011;5574;48.786;10.120;2024-01-06T13:21:03;2.40;;;2.20;;
11042;SDS011;5574;48.786;10.120;2024-01-06T13:23:31;2.63;;;2.43;;
11042;SDS011;5574;48.786;10.120;2024-01-06T13:25:57;2.80;;;2.50;;
11042;SDS011;5574;48.786;10.120;2024-01-06T13:28:25;2.40;;;2.20;;
11042;SDS011;5574;48.786;10.120;2024-01-06T13:30:52;2.20;;;2.00;;
11042;SDS011;5574;48.786;10.120;2024-01-06T13:33:19;2.23;;;2.03;;
11042;SDS011;5574;48.786;10.120;2024-01-06T13:35:46;2.50;;;2.40;;
11042;SDS011;5574;48.786;10.120;2024-01-06T13:38:12;2.33;;;2.17;;
11042;SDS011;5574;48.786;10.120;2024-01-06T13:40:41;2.70;;;2.50;;
11042;SDS011;5574;48.786;10.120;2024-01-06T13:43:07;3.27;;;2.97;;
11042;SDS011;5574;48.786;10.120;2024-01-06T13:45:41;2.50;;;2.30;;
11042;SDS011;5574;48.786;10.120;2024-01-06T13:48:09;2.57;;;2.33;;
11042;SDS011;5574;48.786;10.120;2024-01-06T13:50:36;2.73;;;2.53;;
11042;SDS011;5574;48.786;10.120;2024-01-06T13:53:03;2.83;;;2.63;;
11042;SDS011;5574;48.786;10.120;2024-01-06T13:55:31;2.40;;;2.20;;
11042;SDS011;5574;48.786;10.120;2024-01-06T13:57:58;2.47;;;2.27;;
11042;SDS011;5574;48.786;10.120;2024-01-06T14:00:25;2.40;;;2.20;;
11042;SDS011;5574;48.786;10.120;2024-01-06T14:02:53;3.03;;;2.73;;
11042;SDS011;5574;48.786;10.120;2024-01-06T14:05:21;2.57;;;2.33;;
11042;SDS011;5574;48.786;10.120;2024-01-06T14:07:48;2.30;;;2.20;;
11042;SDS011;5574;48.786;10.120;2024-01-06T14:10:15;2.47;;;2.27;;
11042;SDS011;5574;48.786;10.120;2024-01-06T14:12:42;2.33;;;1.90;;
11042;SDS011;5574;48.786;10.120;2024-01-06T14:15:09;2.70;;;2.50;;
11042;SDS011;5574;48.786;10.120;2024-01-06T14:17:36;2.43;;;2.23;;
11042;SDS011;5574;48.786;10.120;2024-01-06T14:20:06;2.47;;;2.27;;
11042;SDS011;5574;48.786;10.120;2024-01-06T14:22:34;2.83;;;2.50;;
11042;SDS011;5574;48.786;10.120;2024-01-06T14:25:02;2.93;;;2.53;;
11042;SDS011;5574;48.786;10.120;2024-01-06T14:27:29;2.57;;;2.37;;
11042;SDS011;5574;48.786;10.120;2024-01-06T14:29:55;2.50;;;2.30;;
11042;SDS011;5574;48.786;10.120;2024-01-06T14:32:22;2.60;;;2.40;;
11042;SDS011;5574;48.786;10.120;2024-01-06T14:34:49;2.50;;;2.30;;
11042;SDS011;5574;48.786;10.120;2024-01-06T14:37:18;3.00;;;2.50;;
11042;SDS011;5574;48.786;10.120;2024-01-06T14:39:45;2.87;;;2.67;;
11042;SDS011;5574;48.786;10.120;2024-01-06T14:42:11;3.00;;;2.70;;
11042;SDS011;5574;48.786;10.120;2024-01-06T14:44:38;3.60;;;2.80;;
11042;SDS011;5574;48.786;10.120;2024-01-06T14:47:05;3.10;;;2.90;;
11042;SDS011;5574;48.786;10.120;2024-01-06T14:49:32;3.00;;;2.80;;
11042;SDS011;5574;48.786;10.120;2024-01-06T14:51:59;2.70;;;2.50;;